SSEC Globe Logo

Space Science and Engineering Center

Surface Aviation Observations

KAIG 192355Z AUTO 33007KT 7SM SCT028 BKN050 OVC070 M12/M15
     A3006 RMK AO2 T11211150 11088 21121=
KAIG 192355Z AUTO 33007KT 7SM SCT028 BKN050 OVC070 M12/M15
     A3006 RMK AO2 T11211150 11088 21121=
KC29 192355Z AUTO 31006KT 1SM OVC015 M02/M04 A3006 RMK AO1
     T10251040 11012 21025=
KC29 192355Z AUTO 31006KT 1SM OVC015 M02/M04 A3006 RMK AO1
     T10251040 11012 21025=
KBCK 192355Z AUTO 30008KT 2 1/2SM -SN OVC015 M08/M11 A3018
     RMK AO2 VIS 1 3/4V4 T10831108 11047 21083=
KBCK 192355Z AUTO 30008KT 2 1/2SM -SN OVC015 M08/M11 A3018
     RMK AO2 VIS 1 3/4V4 T10831108 11047 21083=
KUBE 192355Z AUTO 31006KT 10SM CLR M15/M18 A3019 RMK AO2=
KUBE 192355Z AUTO 31006KT 10SM CLR M15/M18 A3019 RMK AO2=
KPVB 192355Z AUTO 34021G26KT 1/2SM OVC007 M03/M03 A3007 RMK
     AO1 T10261026 11005 21030=
KPVB 192355Z AUTO 34021G26KT 1/2SM OVC007 M03/M03 A3007 RMK
     AO1 T10261026 11005 21030=
KEZS 192355Z AUTO 30004KT 10SM SCT033 BKN038 OVC045 M07/M11
     A3009 RMK AO2 T10681112 11053 21068=
KEZS 192355Z AUTO 30004KT 10SM SCT033 BKN038 OVC045 M07/M11
     A3009 RMK AO2 T10681112 11053 21068=
KARV 192355Z AUTO 33007KT 10SM CLR M13/M17 A3008 RMK AO2
     T11281171 11107 21128=
KARV 192355Z AUTO 33007KT 10SM CLR M13/M17 A3008 RMK AO2
     T11281171 11107 21128=
KASX 192353Z AUTO 25006KT 10SM OVC027 M13/M17 A3020 RMK AO2
     SLP247 60000 T11281172 11122 21133 51017=
KASX 192353Z AUTO 25006KT 10SM OVC027 M13/M17 A3020 RMK AO2
     SLP247 60000 T11281172 11122 21133 51017=
KATW 192345Z 31006KT 6SM -SN BKN026 OVC034 M07/M12 A3006=
KATW 192345Z 31006KT 6SM -SN BKN026 OVC034 M07/M12 A3006=
KAUW 192354Z AUTO 28008KT 1 1/4SM -SN BR OVC018 M10/M12
     A3007 RMK AO2 SLP212 P0000 60000 T11001122 11089 21100
     53017=
KAUW 192354Z AUTO 28008KT 1 1/4SM -SN BR OVC018 M10/M12
     A3007 RMK AO2 SLP212 P0000 60000 T11001122 11089 21100
     53017=
KCLI 192355Z AUTO 32010KT 7SM BKN037 OVC045 M08/M12 A3010
     RMK AO2 T10781116 11059 21078=
KCLI 192355Z AUTO 32010KT 7SM BKN037 OVC045 M08/M12 A3010
     RMK AO2 T10781116 11059 21078=
KCMY 192355Z AUTO 30014G19KT 10SM M08/M11 A3018 RMK AO2
     T10801110 11043 21080=
KCMY 192355Z AUTO 30014G19KT 10SM M08/M11 A3018 RMK AO2
     T10801110 11043 21080=
KCWA 192350Z 29007KT 3SM -SN OVC025 M10/M12 A3010=
KCWA 192350Z 29007KT 3SM -SN OVC025 M10/M12 A3010=
KDLL 192355Z AUTO 34005KT 1 1/4SM UP SCT008 BKN012 OVC020
     M06/M06 A3008 RMK AO2 T10601065 11046 21060=
KEAU 192356Z 31013KT 10SM OVC021 M11/M16 A3021 RMK AO2
     SNB13E27 SLP248 P0000 60000 T11061156 11078 21106
     51031=
KEAU 192356Z 31013KT 10SM OVC021 M11/M16 A3021 RMK AO2
     SNB13E27 SLP248 P0000 60000 T11061156 11078 21106
     51031=
KEFT 192355Z AUTO 22006KT 1 1/2SM -SN BKN007 OVC011 M02/M03
     A3002 RMK AO2 T10221032 11022 21038=
KEFT 192355Z AUTO 22006KT 1 1/2SM -SN BKN007 OVC011 M02/M03
     A3002 RMK AO2 T10221032 11022 21038=
KEGV 192355Z AUTO 31008KT 10SM BKN019 M14/M17 A3006 RMK AO2
     T11371167 11111 21138=
KEGV 192355Z AUTO 31008KT 10SM BKN019 M14/M17 A3006 RMK AO2
     T11371167 11111 21138=
KENW 192353Z 26006KT 1 3/4SM -SN BR OVC029 M02/M04 A3005 RMK
     AO2 SLP188 P0000 60000 T10221044 11011 21022 58007 $=
KENW 192353Z 26006KT 1 3/4SM -SN BR OVC029 M02/M04 A3005 RMK
     AO2 SLP188 P0000 60000 T10221044 11011 21022 58007 $=
KENW 192349Z 26006KT 1 3/4SM -SN BR OVC029 M02/M04 A3006 RMK
     AO2 P0000 $=
KETB 192355Z AUTO 33003KT 1 3/4SM -SN SCT008 BKN018 OVC023
     M05/M05 A3005 RMK AO2=
KETB 192355Z AUTO 33003KT 1 3/4SM -SN SCT008 BKN018 OVC023
     M05/M05 A3005 RMK AO2=
KFLD 192353Z AUTO 33008KT 3SM -SN OVC032 M05/M08 A3008 RMK
     AO2 SLP198 P0000 60000 T10501083 11033 21050 53006=
KFLD 192353Z AUTO 33008KT 3SM -SN OVC032 M05/M08 A3008 RMK
     AO2 SLP198 P0000 60000 T10501083 11033 21050 53006=
KGRB 192353Z 31009KT 10SM OVC050 M06/M14 A3009 RMK AO2
     SLP202 T10611139 11050 21061 53009=
KGRB 192353Z 31009KT 10SM OVC050 M06/M14 A3009 RMK AO2
     SLP202 T10611139 11050 21061 53009=
KHYR 192353Z AUTO 00000KT 10SM FEW021 M15/M19 A3018 RMK AO2
     SLP252 60000 T11501194 11117 21150 51022=
KHYR 192353Z AUTO 00000KT 10SM FEW021 M15/M19 A3018 RMK AO2
     SLP252 60000 T11501194 11117 21150 51022=
KHYR 192345Z AUTO 00000KT 10SM SCT021 M14/M19 A3018 RMK AO2
     T11441194=
KISW 192354Z AUTO 32012KT 4SM -SN FEW017 OVC050 M09/M12
     A3012 RMK AO2 SLP220 P0000 60000 T10891122 11056 21089
     53018 $=
KISW 192354Z AUTO 32012KT 4SM -SN FEW017 OVC050 M09/M12
     A3012 RMK AO2 SLP220 P0000 60000 T10891122 11056 21089
     53018 $=
KJVL 192345Z 22003KT 3SM -SN OVC012 M02/M02 A3004=
KJVL 192345Z 22003KT 3SM -SN OVC012 M02/M02 A3004=
KLNL 192355Z AUTO 30004KT 10SM SCT018 OVC027 M13/M16 A3007
     RMK AO2 T11311157 11105 21135=
KLNL 192355Z AUTO 30004KT 10SM SCT018 OVC027 M13/M16 A3007
     RMK AO2 T11311157 11105 21135=
KLNR 192356Z AUTO 32011G19KT 3SM -SN FEW015 BKN029 OVC033
     M03/M06 A3012 RMK AO2 SLP204 P0001 60002 T10331061
     11022 21033 51019=
KLNR 192356Z AUTO 32011G19KT 3SM -SN FEW015 BKN029 OVC033
     M03/M06 A3012 RMK AO2 SLP204 P0001 60002 T10331061
     11022 21033 51019=
KLNR 192353Z AUTO 32013G19KT 2 1/2SM -SN FEW012 SCT027
     OVC033 M03/M06 A3011 RMK AO2 P0001=
KLNR 192346Z AUTO 31010KT 2 1/2SM -SN FEW015 OVC029 M03/M06
     A3011 RMK AO2 P0001 T10331061=
KLSE 192353Z 32020G26KT 8SM -SN OVC025 M07/M12 A3019 RMK AO2
     PK WND 31026/2352 SNB2255E24B52 SLP241 P0000 60003
     T10721117 11033 21072 53034=
KLSE 192353Z 32020G26KT 8SM -SN OVC025 M07/M12 A3019 RMK AO2
     PK WND 31026/2352 SNB2255E24B52 SLP241 P0000 60003
     T10721117 11033 21072 53034=
KLUM 192355Z AUTO 29008KT 10SM SCT022 M13/M16 A3022 RMK AO2
     T11311165 11100 21131=
KLUM 192355Z AUTO 29008KT 10SM SCT022 M13/M16 A3022 RMK AO2
     T11311165 11100 21131=
KMDZ 192355Z AUTO 30007KT 7SM -SN BKN024 M12/M15 A3009 RMK
     AO2 T11241147 11107 21124=
KMDZ 192355Z AUTO 30007KT 7SM -SN BKN024 M12/M15 A3009 RMK
     AO2 T11241147 11107 21124=
KMFI 192354Z AUTO 32016G23KT 7SM SCT041 OVC110 M11/M14 A3011
     RMK AO2 SNE21 SLP222 P0000 60000 T11061139 11072 21106
     53023=
KMFI 192354Z AUTO 32016G23KT 7SM SCT041 OVC110 M11/M14 A3011
     RMK AO2 SNE21 SLP222 P0000 60000 T11061139 11072 21106
     53023=
KMKE 192352Z 28004KT 1 1/2SM -SN BR OVC021 M03/M05 A3005 RMK
     AO2 SLP189 4/002 P0001 60003 T10281050 11017 21028
     56004=
KMKE 192352Z 28004KT 1 1/2SM -SN BR OVC021 M03/M05 A3005 RMK
     AO2 SLP189 4/002 P0001 60003 T10281050 11017 21028
     56004=
KMRJ 192355Z AUTO 33016G20KT 1 1/4SM -SN SCT006 BKN012
     BKN120 M02/M03 A3007 RMK AO2=
KMRJ 192355Z AUTO 33016G20KT 1 1/4SM -SN SCT006 BKN012
     BKN120 M02/M03 A3007 RMK AO2=
KMSN 192353Z 31004KT 1SM R36/P6000FT -SN BR OVC018 M03/M04
     A3005 RMK AO2 SFC VIS 1 1/2 SLP191 4/006 P0001 60005
     T10331044 11028 21033 53002=
KMSN 192353Z 31004KT 1SM R36/P6000FT -SN BR OVC018 M03/M04
     A3005 RMK AO2 SFC VIS 1 1/2 SLP191 4/006 P0001 60005
     T10331044 11028 21033 53002=
KMTW 192356Z AUTO 33010KT 7SM -SN BKN043 OVC070 M06/M10
     A3009 RMK AO2 SNB22 SLP200 P0000 60000 T10561100 11028
     21056 53006 FZRANO=
KMTW 192356Z AUTO 33010KT 7SM -SN BKN043 OVC070 M06/M10
     A3009 RMK AO2 SNB22 SLP200 P0000 60000 T10561100 11028
     21056 53006 FZRANO=
KOEO 192355Z AUTO 31004KT 10SM CLR M13/M17 A3028 RMK AO2
     T11311172 11107 21131=
KOEO 192355Z AUTO 31004KT 10SM CLR M13/M17 A3028 RMK AO2
     T11311172 11107 21131=
KOSH 192353Z 32009KT 4SM -SN OVC038 M06/M10 A3008 RMK AO2
     SLP206 P0000 60000 T10611100 11044 21061 53008=
KOSH 192353Z 32009KT 4SM -SN OVC038 M06/M10 A3008 RMK AO2
     SLP206 P0000 60000 T10611100 11044 21061 53008=
KOVS 192353Z AUTO 31010G17KT 8SM -SN BKN020 BKN027 OVC065
     M03/M07 A3015 RMK AO2 SLP219 P0000 60003 T10331067
     11011 21033 53028=
KOVS 192353Z AUTO 31010G17KT 8SM -SN BKN020 BKN027 OVC065
     M03/M07 A3015 RMK AO2 SLP219 P0000 60003 T10331067
     11011 21033 53028=
KPBH 192355Z AUTO 32005KT 10SM OVC020 M13/M16 A3011 RMK AO2
     T11301165 11114 21133=
KPBH 192355Z AUTO 32005KT 10SM OVC020 M13/M16 A3011 RMK AO2
     T11301165 11114 21133=
KPCZ 192355Z AUTO 30008KT 3SM -SN OVC016 M06/M10 A3010 RMK
     AO2 T10651098 11035 21065=
KPCZ 192355Z AUTO 30008KT 3SM -SN OVC016 M06/M10 A3010 RMK
     AO2 T10651098 11035 21065=
KPDC 192355Z AUTO 33013G17KT 10SM SCT022 BKN028 OVC080
     M04/M09 A3017 RMK AO2 T10411088 11010 21041=
KPDC 192355Z AUTO 33013G17KT 10SM SCT022 BKN028 OVC080
     M04/M09 A3017 RMK AO2 T10411088 11010 21041=
KRAC 200001Z AUTO 25003KT 2 1/2SM -SN BR OVC035 M03/M04
     A3007 RMK AO2 P0000 T10331044=
KRAC 192353Z AUTO 25003KT 3SM -SN BR OVC035 M03/M04 A3007
     RMK AO2 SLP193 P0000 60000 T10331044 11017 21033 58004=
KRAC 192353Z AUTO 25003KT 3SM -SN BR OVC035 M03/M04 A3007
     RMK AO2 SLP193 P0000 60000 T10331044 11017 21033 58004=
KRCX 192355Z AUTO 31007KT 10SM M13/M16 A3019 RMK AO2
     T11261158 11093 21126=
KRCX 192355Z AUTO 31007KT 10SM M13/M16 A3019 RMK AO2
     T11261158 11093 21126=
KRHI 192353Z AUTO 29004KT 10SM CLR M14/M17 A3006 RMK AO2
     SLP218 60000 T11391167 11111 21139 53018=
KRHI 192353Z AUTO 29004KT 10SM CLR M14/M17 A3006 RMK AO2
     SLP218 60000 T11391167 11111 21139 53018=
KRNH 192355Z AUTO 32005KT 10SM CLR M14/M18 A3023 RMK AO2
     T11421182 11096 21142=
KRNH 192355Z AUTO 32005KT 10SM CLR M14/M18 A3023 RMK AO2
     T11421182 11096 21142=
KRPD 192355Z AUTO 30007KT 10SM SCT021 M13/M17 A3021 RMK AO2
     T11301170 11109 21130=
KRPD 192355Z AUTO 30007KT 10SM SCT021 M13/M17 A3021 RMK AO2
     T11301170 11109 21130=
KRRL 192355Z AUTO 33004KT 7SM SCT020 SCT038 OVC070 M10/M14
     A3007 RMK AO2 T11051142 11077 21105 TSNO=
KRRL 192355Z AUTO 33004KT 7SM SCT020 SCT038 OVC070 M10/M14
     A3007 RMK AO2 T11051142 11077 21105 TSNO=
KRYV 192355Z AUTO 33003KT 1 3/4SM -SN SCT005 OVC011 M04/M04
     A3006 RMK AO2 P0001 60003 T10421042 11030 21043=
KRYV 192355Z AUTO 33003KT 1 3/4SM -SN SCT005 OVC011 M04/M04
     A3006 RMK AO2 P0001 60003 T10421042 11030 21043=
KRZN 192355Z AUTO 32003KT 10SM CLR M14/M18 A3022 RMK AO2
     T11451180 11113 21145=
KRZN 192355Z AUTO 32003KT 10SM CLR M14/M18 A3022 RMK AO2
     T11451180 11113 21145=
KSBM 192353Z AUTO 31004KT 4SM -SN OVC042 M05/M09 A3007 RMK
     AO2 SNB2258E23B41 SLP195 P0000 60000 T10501089 11039
     21050 53004=
KSBM 192353Z AUTO 31004KT 4SM -SN OVC042 M05/M09 A3007 RMK
     AO2 SNB2258E23B41 SLP195 P0000 60000 T10501089 11039
     21050 53004=
KSUE 192356Z AUTO 32007KT 9SM -SN OVC026 M07/M11 A3008 RMK
     AO2 SNB14 SLP196 P0000 60000 T10671106 11056 21067
     53006 FZRANO=
KSUE 192356Z AUTO 32007KT 9SM -SN OVC026 M07/M11 A3008 RMK
     AO2 SNB14 SLP196 P0000 60000 T10671106 11056 21067
     53006 FZRANO=
KSUW 192355Z AUTO 29007KT 10SM CLR M13/M19 A3022 RMK AO2
     T11351195 11116 21142=
KTKV 192355Z AUTO 30003KT 10SM SCT018 M14/M16 A3009 RMK AO2
     T11411164 11093 21141 PWINO=
KTKV 192355Z AUTO 30003KT 10SM SCT018 M14/M16 A3009 RMK AO2
     T11411164 11093 21141 PWINO=
KUNU 192355Z AUTO 00000KT 2SM -SN SCT010 BKN016 OVC028
     M05/M06 A3007 RMK AO2 T10531060 11046 21053=
KY50 192356Z AUTO 34008KT 4SM -SN BKN025 OVC031 M07/M10 RMK
     AO2 SLPNO P0000 6//// T10721100 11039 21072 FZRANO $=
KY50 192356Z AUTO 34008KT 4SM -SN BKN025 OVC031 M07/M10 RMK
     AO2 SLPNO P0000 6//// T10721100 11039 21072 FZRANO $=
KY51 192355Z AUTO 33012G21KT 5SM SCT014 BKN027 OVC080
     M07/M08 A3012 RMK AO1 T10711081 11038 21071=
KY51 192355Z AUTO 33012G21KT 5SM SCT014 BKN027 OVC080
     M07/M08 A3012 RMK AO1 T10711081 11038 21071=
KY23 192355Z AUTO 31006KT 10SM OVC021 M12/M16 A3020 RMK AO2
     T11241164 11105 21124=
KY23 192355Z AUTO 31006KT 10SM OVC021 M12/M16 A3020 RMK AO2
     T11241164 11105 21124=
K3D2 192355Z AUTO 35007KT 10SM BKN027 OVC039 M08/M12 A3006
     RMK AO2 T10761124 11054 21076=
K3D2 192355Z AUTO 35007KT 10SM BKN027 OVC039 M08/M12 A3006
     RMK AO2 T10761124 11054 21076=
KD25 192355Z AUTO 31007KT 10SM OVC015 M14/M17 A3009 RMK AO2
     T11431173 11123 21150=
KD25 192355Z AUTO 31007KT 10SM OVC015 M14/M17 A3009 RMK AO2
     T11431173 11123 21150=
K82C 192355Z AUTO 32010G16KT 5SM -SN SCT015 BKN030 OVC050
     M06/M09 A3011 RMK AO2 T10641086 11042 21064=
K82C 192355Z AUTO 32010G16KT 5SM -SN SCT015 BKN030 OVC050
     M06/M09 A3011 RMK AO2 T10641086 11042 21064=
KOCQ 192355Z AUTO 33008KT 10SM SCT060 BKN075 BKN120 M08/M14
     A3010 RMK AO1 T10801140 11057 21080=
KOCQ 192355Z AUTO 33008KT 10SM SCT060 BKN075 BKN120 M08/M14
     A3010 RMK AO1 T10801140 11057 21080=
KC35 192355Z AUTO 32009KT 4SM SCT015 BKN026 OVC032 M05/M06
     A3010 RMK AO2 T10521064 11037 21052 PWINO=
KC35 192355Z AUTO 32009KT 4SM SCT015 BKN026 OVC032 M05/M06
     A3010 RMK AO2 T10521064 11037 21052 PWINO=
KOLG 192355Z AUTO 00000KT 10SM CLR M18/M20 A3018 RMK AO1=
KOLG 192355Z AUTO 00000KT 10SM CLR M18/M20 A3018 RMK AO1=
K2P2 192355Z AUTO 34007KT 5SM -SN BKN026 OVC037 M07/M11
     A3007 RMK AO2 T10751115 11053 21075=
K2P2 192355Z AUTO 34007KT 5SM -SN BKN026 OVC037 M07/M11
     A3007 RMK AO2 T10751115 11053 21075=
KDBQ 192358Z 33030G38KT 1 3/4SM -SN BR BKN013 BKN021 OVC026
     M02/M04 A3009=
KDBQ 192358Z 33030G38KT 1 3/4SM -SN BR BKN013 BKN021 OVC026
     M02/M04 A3009 RMK AO2 PK WND 32038/2356 VIS 3/4V4 SNB57
     PRESRR P0000 T10171039 $=
KDBQ 192353Z 30021G32KT 4SM BR BKN013 BKN021 OVC026 M01/M03
     A3008 RMK AO2 PK WND 28035/2325 SLP200 60001 T10111033
     10000 21033 53005 $=
KDBQ 192353Z 30021G32KT 4SM BR BKN013 BKN021 OVC026 M01/M03
     A3008 RMK AO2 PK WND 28035/2325 SLP200 60001 T10111033
     10000 21033 53005 $=
KRST 192354Z 31015KT 10SM CLR M12/M15 A3021 RMK AO2 SNE15
     SLP255 P0000 60002 T11171150 11056 21117 51036=
KRST 192354Z 31015KT 10SM CLR M12/M15 A3021 RMK AO2 SNE15
     SLP255 P0000 60002 T11171150 11056 21117 51036=
KMSP 192353Z 31008KT 7SM CLR M12/M16 A3026 RMK AO2 SLP264
     4/006 60001 T11171161 11089 21117 51019=
KMSP 192353Z 31008KT 7SM CLR M12/M16 A3026 RMK AO2 SLP264
     4/006 60001 T11171161 11089 21117 51019=
KRFD 192354Z 23010G18KT 3SM -SN BKN012 OVC018 00/M03 A3007
     RMK AO2 SLP194 4/005 P0000 60000 T00001033 10000 21028
     58012=
KRFD 192354Z 23010G18KT 3SM -SN BKN012 OVC018 00/M03 A3007
     RMK AO2 SLP194 4/005 P0000 60000 T00001033 10000 21028
     58012=
KORD 192351Z 24008KT 5SM -SN BR BKN012 OVC018 M01/M04 A3007
     RMK AO2 SLP191 4/001 P0000 60001 T10111039 11011 21033
     56013=
KORD 192351Z 24008KT 5SM -SN BR BKN012 OVC018 M01/M04 A3007
     RMK AO2 SLP191 4/001 P0000 60001 T10111039 11011 21033
     56013=